EYVI

Vilnius International Airport

Vilnius, Lithuania

EYVI 110850Z 16012KT 9999 OVC010 M02/M03 Q0997 R19/2///95 NOSIG

Observed Flight Rules
Dec-11 @ 08:50 UTC (29 minutes ago) Marginal Visual Flight Rules
Wind Visibility Clouds
160° at 12 knots 10,000+ meters
  • Overcast at 1,000' AGL
Temperatures Readings
Current -2°C / 28°F
Dewpoint -3°C / 27°F
Humidity 93%
Altimeter 29.44" Hg
Pressure 997 hPa
Elevation 197
Observed Flight Rules
Dec-11 @ 08:50 UTC
(29 minutes ago)
MVFR
Wind Visibility
160° at 12 knots 10,000+ meters
Clouds
  • Overcast at 1,000' AGL
Temperature Dewpoint
-2°C / 28°F -3°C / 27°F
Humidity Altimeter Pressure
93% 29.44" Hg 997 hPa